Time;durP1;ratioP1;P1;durP2;ratioP2;P2;SDS_P1;SDS_P2;PMS_P1;PMS_P2;Temp;Humidity;BMP_temperature;BMP_pressure;BME280_temperature;BME280_humidity;BME280_pressure;Samples;Min_cycle;Max_cycle;Signal;HPM_P1;HPM_P2
2022/11/14 00:00:12;;;;;;;3.33;2.47;;;;;;;23.51;37.58;99356.50;5129307;28;20046;-58
2022/11/14 00:02:38;;;;;;;3.60;2.63;;;;;;;23.51;37.63;99350.13;5130158;28;20043;-68
2022/11/14 00:05:05;;;;;;;3.22;2.30;;;;;;;23.50;37.55;99349.28;5114446;28;20112;-68
2022/11/14 00:07:31;;;;;;;3.08;2.13;;;;;;;23.51;37.57;99356.50;5112223;27;20054;-57
2022/11/14 00:09:57;;;;;;;3.65;2.40;;;;;;;23.52;37.58;99343.34;5114784;28;20051;-68
2022/11/14 00:12:22;;;;;;;3.15;2.35;;;;;;;23.49;37.58;99336.53;5119709;28;20354;-57
2022/11/14 00:14:47;;;;;;;3.00;2.05;;;;;;;23.50;37.44;99348.50;5124130;27;20038;-68
2022/11/14 00:17:13;;;;;;;4.20;2.60;;;;;;;23.49;37.60;99336.53;5111223;28;20055;-68
2022/11/14 00:19:38;;;;;;;3.10;2.20;;;;;;;23.48;37.58;99334.13;5118304;27;20039;-57
2022/11/14 00:22:04;;;;;;;3.33;2.20;;;;;;;23.45;37.54;99332.94;5117194;27;20126;-57
2022/11/14 00:24:30;;;;;;;2.75;1.90;;;;;;;23.47;37.55;99338.94;5115525;27;20079;-66
2022/11/14 00:26:55;;;;;;;3.13;2.25;;;;;;;23.50;37.66;99335.34;5113005;28;20034;-67
2022/11/14 00:29:20;;;;;;;2.92;2.22;;;;;;;23.56;37.57;99328.16;5113241;27;20052;-57
2022/11/14 00:31:46;;;;;;;3.25;2.35;;;;;;;23.59;37.66;99332.97;5120890;28;20395;-67
2022/11/14 00:34:11;;;;;;;3.13;2.13;;;;;;;23.59;37.64;99327.41;5124511;27;20039;-57
2022/11/14 00:36:37;;;;;;;3.10;2.03;;;;;;;23.57;37.73;99318.59;5114104;28;20455;-68
2022/11/14 00:39:03;;;;;;;2.80;1.90;;;;;;;23.59;37.39;99321.00;5111804;28;20043;-67
2022/11/14 00:41:28;;;;;;;3.13;2.10;;;;;;;23.58;37.48;99320.22;5114371;28;20111;-67
2022/11/14 00:43:53;;;;;;;3.33;2.20;;;;;;;23.56;37.37;99325.38;5119717;28;20418;-56
2022/11/14 00:46:19;;;;;;;3.35;2.40;;;;;;;23.54;37.52;99308.22;5121247;28;20055;-57
2022/11/14 00:48:44;;;;;;;3.20;2.20;;;;;;;23.56;37.51;99307.84;5105412;28;20047;-57
2022/11/14 00:51:10;;;;;;;3.15;2.10;;;;;;;23.55;37.43;99304.25;5120240;28;20118;-67
2022/11/14 00:53:36;;;;;;;3.20;2.40;;;;;;;23.53;37.58;99294.69;5110595;28;20505;-57
2022/11/14 00:56:02;;;;;;;3.08;2.28;;;;;;;23.52;37.68;99302.25;5112617;27;20048;-67
2022/11/14 00:58:27;;;;;;;2.97;2.13;;;;;;;23.52;37.55;99288.28;5109708;28;20052;-68
2022/11/14 01:00:53;;;;;;;3.08;2.33;;;;;;;23.52;37.57;99285.50;5114074;28;20098;-68
2022/11/14 01:03:18;;;;;;;3.35;2.30;;;;;;;23.53;37.53;99292.69;5109636;28;20051;-57
2022/11/14 01:05:46;;;;;;;2.90;2.00;;;;;;;23.52;37.50;99285.50;5096589;28;20038;-57
2022/11/14 01:08:13;;;;;;;3.28;2.33;;;;;;;23.52;37.55;99291.09;5117704;27;20444;-57
2022/11/14 01:10:43;;;;;;;3.90;2.60;;;;;;;23.52;37.59;99285.50;5121345;27;20043;-66
2022/11/14 01:13:10;;;;;;;4.15;2.40;;;;;;;23.51;37.49;99286.69;5113202;28;20051;-68
2022/11/14 01:15:44;;;;;;;3.15;2.30;;;;;;;23.49;37.53;99277.91;5117569;28;20457;-56
2022/11/14 01:18:11;;;;;;;3.10;2.42;;;;;;;23.51;37.47;99272.75;5121531;28;20492;-56
2022/11/14 01:20:39;;;;;;;3.47;2.30;;;;;;;23.50;37.51;99282.28;5114659;28;20388;-68
2022/11/14 01:23:05;;;;;;;3.00;2.10;;;;;;;23.49;37.64;99274.31;5114260;27;20069;-57
2022/11/14 01:25:39;;;;;;;4.22;2.58;;;;;;;23.49;37.65;99277.91;5112242;28;20048;-67
2022/11/14 01:28:07;;;;;;;3.50;2.53;;;;;;;23.49;37.55;99282.69;5126659;27;20044;-57
2022/11/14 01:30:32;;;;;;;3.45;2.25;;;;;;;23.46;37.61;99275.91;5123465;27;20142;-56
2022/11/14 01:32:58;;;;;;;3.50;2.53;;;;;;;23.48;37.59;99276.31;5112499;28;20126;-67
2022/11/14 01:35:23;;;;;;;3.53;2.25;;;;;;;23.48;37.51;99273.53;5120586;28;20131;-56
2022/11/14 01:37:49;;;;;;;3.03;2.08;;;;;;;23.48;37.47;99273.53;5116048;28;20035;-55
2022/11/14 01:40:15;;;;;;;3.13;2.38;;;;;;;23.45;37.50;99262.38;5113491;27;20050;-67
2022/11/14 01:42:40;;;;;;;3.45;2.30;;;;;;;23.47;37.57;99266.34;5118764;28;20043;-67
2022/11/14 01:45:43;;;;;;;3.25;2.38;;;;;;;23.49;37.59;99261.16;5119353;27;20452;-67
2022/11/14 01:48:27;;;;;;;3.38;2.22;;;;;;;23.49;37.46;99263.94;5116811;28;20039;-66
2022/11/14 01:50:57;;;;;;;3.17;2.30;;;;;;;23.49;37.68;99254.78;5119011;28;20059;-68
2022/11/14 01:53:24;;;;;;;2.95;2.00;;;;;;;23.49;37.52;99255.56;5117051;27;20048;-57
2022/11/14 01:55:51;;;;;;;2.90;2.13;;;;;;;23.48;37.55;99250.38;5115873;28;20100;-57
2022/11/14 01:58:17;;;;;;;3.13;2.30;;;;;;;23.48;37.50;99242.81;5130172;28;20473;-56
2022/11/14 02:00:43;;;;;;;3.50;2.33;;;;;;;23.52;37.62;99252.00;5112224;28;20491;-55
2022/11/14 02:03:12;;;;;;;3.17;2.40;;;;;;;23.57;37.65;99248.00;5116625;28;20462;-67
2022/11/14 02:05:38;;;;;;;2.75;2.10;;;;;;;23.57;37.63;99254.38;5118948;28;20105;-56
2022/11/14 02:08:03;;;;;;;2.85;2.20;;;;;;;23.58;37.75;99244.84;5117845;27;20531;-56
2022/11/14 02:10:28;;;;;;;3.15;2.10;;;;;;;23.57;37.61;99240.41;5113391;28;20068;-57
2022/11/14 02:12:54;;;;;;;3.08;2.20;;;;;;;23.57;37.40;99246.00;5121737;27;20047;-68
2022/11/14 02:15:20;;;;;;;3.35;2.30;;;;;;;23.58;37.58;99238.44;5113874;28;20705;-69
2022/11/14 02:17:45;;;;;;;2.80;1.90;;;;;;;23.57;37.41;99239.63;5128861;28;20426;-68
2022/11/14 02:20:11;;;;;;;3.03;2.08;;;;;;;23.56;37.58;99224.06;5115411;28;20043;-57
2022/11/14 02:22:38;;;;;;;2.80;2.08;;;;;;;23.55;37.66;99237.22;5123089;27;20044;-57
2022/11/14 02:25:04;;;;;;;3.28;2.20;;;;;;;23.52;37.57;99229.66;5126190;28;20116;-68
2022/11/14 02:27:31;;;;;;;3.08;2.20;;;;;;;23.53;37.68;99236.84;5111763;28;20039;-68
2022/11/14 02:30:11;;;;;;;3.22;2.10;;;;;;;23.53;37.58;99228.47;5092531;28;20097;-69
2022/11/14 02:32:36;;;;;;;2.90;2.00;;;;;;;23.52;37.57;99228.88;5124477;27;20054;-67
2022/11/14 02:35:02;;;;;;;3.50;2.50;;;;;;;23.49;37.63;99224.88;5112255;28;20036;-67
2022/11/14 02:37:27;;;;;;;3.10;2.30;;;;;;;23.51;37.57;99235.66;5113221;28;20050;-57
2022/11/14 02:39:53;;;;;;;3.35;2.30;;;;;;;23.52;37.58;99232.47;5124818;28;20538;-57
2022/11/14 02:42:18;;;;;;;2.90;2.30;;;;;;;23.50;37.80;99215.28;5124661;28;20157;-68
2022/11/14 02:44:43;;;;;;;3.20;1.90;;;;;;;23.52;37.70;99223.28;5117460;28;21366;-57
2022/11/14 02:47:09;;;;;;;3.03;2.00;;;;;;;23.51;37.66;99216.13;5127072;28;20126;-57
2022/11/14 02:49:34;;;;;;;3.10;2.13;;;;;;;23.50;37.70;99215.28;5130988;28;20078;-57
2022/11/14 02:51:59;;;;;;;3.08;2.20;;;;;;;23.51;37.67;99216.91;5120870;28;20051;-57
2022/11/14 02:54:25;;;;;;;2.95;2.10;;;;;;;23.49;37.78;99213.69;5114054;28;20053;-68
2022/11/14 02:56:50;;;;;;;3.10;2.20;;;;;;;23.46;37.71;99211.72;5124162;28;20054;-69
2022/11/14 02:59:16;;;;;;;3.00;2.10;;;;;;;23.49;37.72;99210.09;5115076;27;20415;-68
2022/11/14 03:01:41;;;;;;;3.50;2.38;;;;;;;23.51;37.83;99216.13;5111490;28;20047;-57
2022/11/14 03:04:07;;;;;;;2.70;2.00;;;;;;;23.49;37.73;99207.31;5127270;28;20051;-68
2022/11/14 03:06:32;;;;;;;3.05;2.03;;;;;;;23.49;37.80;99212.91;5126245;27;20427;-68
2022/11/14 03:08:58;;;;;;;2.63;1.90;;;;;;;23.49;37.71;99210.91;5111301;28;20040;-68
2022/11/14 03:11:23;;;;;;;2.90;2.08;;;;;;;23.48;37.80;99219.69;5123766;27;20067;-57
2022/11/14 03:13:48;;;;;;;3.47;2.10;;;;;;;23.47;37.82;99209.72;5116601;28;20034;-57
2022/11/14 03:16:14;;;;;;;3.10;2.20;;;;;;;23.46;37.77;99203.34;5099836;28;20502;-58
2022/11/14 03:18:39;;;;;;;2.83;1.95;;;;;;;23.50;37.79;99218.09;5123233;28;20396;-68
2022/11/14 03:21:06;;;;;;;3.03;1.90;;;;;;;23.49;37.81;99212.91;5121597;28;20043;-56
2022/11/14 03:23:32;;;;;;;3.15;2.10;;;;;;;23.47;37.82;99210.50;5126895;27;20043;-56
2022/11/14 03:26:01;;;;;;;3.15;2.13;;;;;;;23.48;37.94;99214.91;5114696;27;20100;-67
2022/11/14 03:28:27;;;;;;;3.17;2.22;;;;;;;23.47;38.02;99213.31;5114617;28;20047;-68
2022/11/14 03:30:52;;;;;;;3.30;1.90;;;;;;;23.48;37.84;99206.53;5119452;28;20080;-58
2022/11/14 03:33:17;;;;;;;3.08;2.10;;;;;;;23.49;37.94;99212.91;5117454;28;20042;-57
2022/11/14 03:35:43;;;;;;;2.88;2.00;;;;;;;23.51;37.76;99204.94;5117895;28;20074;-57
2022/11/14 03:38:08;;;;;;;3.10;2.30;;;;;;;23.54;38.06;99204.94;5124778;27;20078;-68
2022/11/14 03:40:34;;;;;;;2.85;1.92;;;;;;;23.56;37.87;99207.31;5110662;28;20055;-57
2022/11/14 03:42:59;;;;;;;3.03;2.10;;;;;;;23.55;37.82;99212.09;5121256;28;20042;-57
2022/11/14 03:45:24;;;;;;;2.65;1.90;;;;;;;23.58;37.80;99216.91;5116052;27;20134;-57
2022/11/14 03:47:50;;;;;;;2.78;2.00;;;;;;;23.57;37.83;99223.66;5112248;27;20044;-55
2022/11/14 03:50:15;;;;;;;2.80;2.00;;;;;;;23.56;37.98;99219.28;5110405;28;20036;-55
2022/11/14 03:52:41;;;;;;;2.75;1.90;;;;;;;23.57;37.86;99220.88;5115094;28;20040;-65
2022/11/14 03:55:06;;;;;;;2.80;1.90;;;;;;;23.57;37.84;99220.88;5125191;28;20051;-67
2022/11/14 03:57:32;;;;;;;3.00;2.00;;;;;;;23.57;37.70;99229.25;5125125;27;20496;-67
2022/11/14 03:59:57;;;;;;;2.70;2.00;;;;;;;23.55;37.69;99231.66;5113071;28;20126;-67
2022/11/14 04:02:23;;;;;;;2.60;1.77;;;;;;;23.50;38.03;99212.50;5124573;27;20050;-67
2022/11/14 04:04:48;;;;;;;3.20;1.90;;;;;;;23.54;37.86;99220.88;5111751;27;20050;-67
2022/11/14 04:07:13;;;;;;;2.80;2.03;;;;;;;23.51;37.77;99216.91;5122148;28;20049;-67
2022/11/14 04:09:39;;;;;;;2.40;1.70;;;;;;;23.52;37.99;99224.09;5125312;27;20411;-67
2022/11/14 04:12:05;;;;;;;3.25;1.95;;;;;;;23.53;37.68;99217.31;5110117;28;20097;-56
2022/11/14 04:14:30;;;;;;;2.55;1.77;;;;;;;23.51;37.83;99216.91;5119244;28;20038;-67
2022/11/14 04:16:55;;;;;;;2.50;1.80;;;;;;;23.50;37.74;99209.69;5120407;27;20055;-68
2022/11/14 04:19:21;;;;;;;2.67;1.67;;;;;;;23.51;37.69;99214.13;5109745;28;20415;-57
2022/11/14 04:21:46;;;;;;;2.47;1.70;;;;;;;23.49;37.68;99202.53;5112015;28;20039;-68
2022/11/14 04:24:11;;;;;;;2.50;1.60;;;;;;;23.49;37.69;99208.13;5110887;28;20043;-67
2022/11/14 04:26:37;;;;;;;2.60;1.88;;;;;;;23.49;37.78;99208.13;5111221;27;20035;-67
2022/11/14 04:29:02;;;;;;;2.92;1.90;;;;;;;23.49;37.85;99198.94;5120102;28;20051;-67
2022/11/14 04:31:27;;;;;;;2.63;1.80;;;;;;;23.45;37.76;99196.16;5115188;28;20054;-67
2022/11/14 04:33:53;;;;;;;2.80;2.00;;;;;;;23.48;37.60;99209.31;5111566;27;20071;-67
2022/11/14 04:36:18;;;;;;;2.35;1.80;;;;;;;23.48;37.76;99211.31;5111102;28;20043;-56
2022/11/14 04:38:44;;;;;;;2.55;1.83;;;;;;;23.47;37.69;99204.13;5109351;28;20407;-67
2022/11/14 04:41:09;;;;;;;2.67;1.80;;;;;;;23.48;37.75;99203.72;5109300;28;20483;-57
2022/11/14 04:43:35;;;;;;;2.47;1.65;;;;;;;23.48;37.73;99209.31;5114763;28;20209;-56
2022/11/14 04:46:00;;;;;;;3.10;1.90;;;;;;;23.45;37.76;99207.34;5113166;27;20522;-68
2022/11/14 04:48:26;;;;;;;2.72;1.75;;;;;;;23.47;37.82;99198.56;5109307;28;20043;-68
2022/11/14 04:50:51;;;;;;;3.10;2.03;;;;;;;23.47;37.81;99207.72;5118849;27;20035;-66
2022/11/14 04:53:16;;;;;;;2.70;1.80;;;;;;;23.48;37.88;99202.94;5116657;28;20039;-67
2022/11/14 04:55:43;;;;;;;2.40;1.55;;;;;;;23.46;37.85;99203.34;5121894;28;20047;-66
2022/11/14 04:58:09;;;;;;;2.50;1.77;;;;;;;23.47;37.74;99199.34;5111637;27;20040;-66
2022/11/14 05:00:34;;;;;;;2.55;1.70;;;;;;;23.45;37.89;99193.38;5108946;28;20441;-57
2022/11/14 05:02:59;;;;;;;2.60;1.73;;;;;;;23.47;37.87;99204.94;5118041;28;20305;-68
2022/11/14 05:05:25;;;;;;;2.42;1.70;;;;;;;23.48;37.95;99203.72;5114743;27;20036;-55
2022/11/14 05:07:50;;;;;;;2.25;1.63;;;;;;;23.49;37.82;99193.34;5117522;28;20043;-55
2022/11/14 05:10:16;;;;;;;2.80;1.77;;;;;;;23.47;37.80;99199.34;5111885;28;20131;-67
2022/11/14 05:12:41;;;;;;;2.90;2.00;;;;;;;23.49;37.78;99207.31;5111099;28;20032;-67
2022/11/14 05:15:07;;;;;;;2.30;1.60;;;;;;;23.49;37.75;99205.31;5108848;28;20043;-67
2022/11/14 05:17:32;;;;;;;2.45;1.70;;;;;;;23.55;37.93;99209.31;5119887;27;20946;-56
2022/11/14 05:19:58;;;;;;;2.33;1.73;;;;;;;23.57;37.71;99208.91;5122090;28;20039;-67
2022/11/14 05:22:23;;;;;;;3.00;1.85;;;;;;;23.58;37.84;99213.31;5112588;27;20139;-66
2022/11/14 05:24:49;;;;;;;2.30;1.60;;;;;;;23.57;37.81;99215.28;5108963;28;20051;-56
2022/11/14 05:27:14;;;;;;;3.15;2.00;;;;;;;23.57;37.65;99208.91;5121397;28;20035;-67
2022/11/14 05:29:39;;;;;;;2.25;1.60;;;;;;;23.58;37.79;99207.75;5120813;27;20100;-67
2022/11/14 05:32:05;;;;;;;2.50;1.70;;;;;;;23.58;37.63;99218.91;5111931;28;20415;-57
2022/11/14 05:34:30;;;;;;;2.75;1.95;;;;;;;23.56;37.79;99219.28;5111123;28;20100;-56
2022/11/14 05:36:55;;;;;;;2.35;1.70;;;;;;;23.55;37.72;99212.09;5118772;28;20138;-67
2022/11/14 05:39:21;;;;;;;2.40;1.80;;;;;;;23.54;37.64;99207.72;5111974;28;20124;-67
2022/11/14 05:41:46;;;;;;;2.50;1.80;;;;;;;23.55;37.72;99214.91;5128777;28;20039;-67
2022/11/14 05:44:11;;;;;;;2.72;1.95;;;;;;;23.51;37.63;99197.38;5128006;27;20147;-56
2022/11/14 05:46:37;;;;;;;2.45;1.73;;;;;;;23.52;37.62;99210.13;5121198;27;20109;-57
2022/11/14 05:49:02;;;;;;;2.28;1.52;;;;;;;23.52;37.75;99204.53;5108181;28;20051;-57
2022/11/14 05:51:28;;;;;;;2.05;1.40;;;;;;;23.52;37.70;99209.34;5113186;27;20040;-57
2022/11/14 05:53:54;;;;;;;2.92;1.80;;;;;;;23.52;37.74;99212.13;5115613;27;20476;-55
2022/11/14 05:56:19;;;;;;;2.35;1.70;;;;;;;23.51;37.59;99208.53;5125062;27;20419;-56
2022/11/14 05:58:45;;;;;;;2.90;1.90;;;;;;;23.50;37.80;99211.69;5125731;27;20059;-67
2022/11/14 06:01:14;;;;;;;2.70;1.90;;;;;;;23.51;37.97;99216.91;5119475;28;20040;-56
2022/11/14 06:03:44;;;;;;;2.63;1.77;;;;;;;23.52;37.87;99214.91;5115288;28;20109;-57
2022/11/14 06:06:13;;;;;;;3.00;1.85;;;;;;;23.52;37.70;99217.72;5112011;28;20083;-66
2022/11/14 06:08:38;;;;;;;2.10;1.42;;;;;;;23.52;37.70;99215.72;5121754;27;20962;-57
2022/11/14 06:11:06;;;;;;;2.20;1.50;;;;;;;23.54;37.69;99213.31;5104589;28;20051;-68
2022/11/14 06:13:33;;;;;;;2.63;1.83;;;;;;;23.54;37.69;99202.13;5112699;28;20059;-57
2022/11/14 06:16:00;;;;;;;2.50;1.65;;;;;;;23.56;37.66;99210.91;5096670;28;20412;-68
2022/11/14 06:18:25;;;;;;;2.45;1.70;;;;;;;23.56;37.72;99213.69;5116048;27;20054;-68
2022/11/14 06:20:51;;;;;;;2.70;1.80;;;;;;;23.56;37.58;99205.31;5114896;28;20031;-57
2022/11/14 06:23:16;;;;;;;2.25;1.48;;;;;;;23.58;37.62;99213.31;5127510;28;20038;-57
2022/11/14 06:25:41;;;;;;;1.85;1.30;;;;;;;23.58;37.66;99216.91;5119305;27;20069;-57
2022/11/14 06:28:07;;;;;;;2.03;1.50;;;;;;;23.60;37.67;99213.72;5116756;28;20055;-66
2022/11/14 06:30:32;;;;;;;2.40;1.50;;;;;;;23.58;37.64;99213.31;5120775;28;20120;-55
2022/11/14 06:32:58;;;;;;;2.55;1.60;;;;;;;23.64;37.51;99219.31;5128268;27;20044;-68
2022/11/14 06:35:24;;;;;;;2.60;1.80;;;;;;;23.64;37.63;99219.31;5099852;28;20048;-56
2022/11/14 06:37:50;;;;;;;2.60;1.70;;;;;;;23.65;37.51;99213.34;5116212;27;20114;-56
2022/11/14 06:40:15;;;;;;;2.30;1.60;;;;;;;23.65;37.61;99220.91;5118313;28;20471;-56
2022/11/14 06:42:41;;;;;;;2.60;1.75;;;;;;;23.66;37.53;99222.53;5130495;27;20156;-67
2022/11/14 06:45:07;;;;;;;2.30;1.63;;;;;;;23.67;37.44;99227.72;5114126;28;20042;-56
2022/11/14 06:47:32;;;;;;;2.38;1.63;;;;;;;23.66;37.46;99223.31;5112212;28;20093;-56
2022/11/14 06:49:57;;;;;;;2.20;1.48;;;;;;;23.67;37.60;99224.13;5128736;27;20429;-56
2022/11/14 06:52:24;;;;;;;2.58;1.50;;;;;;;23.69;37.48;99236.47;5120994;27;20043;-67
2022/11/14 06:54:50;;;;;;;3.65;1.65;;;;;;;23.68;37.68;99232.09;5122750;27;20043;-55
2022/11/14 06:57:15;;;;;;;2.20;1.50;;;;;;;23.70;37.73;99228.91;5117688;28;20036;-56
2022/11/14 06:59:40;;;;;;;3.08;2.03;;;;;;;23.72;37.59;99232.06;5125148;28;20528;-56
2022/11/14 07:02:09;;;;;;;3.00;2.03;;;;;;;23.75;37.47;99234.09;5120215;27;20496;-56
2022/11/14 07:04:34;;;;;;;2.42;1.60;;;;;;;23.74;37.35;99229.72;5118813;27;20038;-68
2022/11/14 07:07:00;;;;;;;2.80;1.90;;;;;;;23.79;37.66;99240.47;5110678;28;20508;-67
2022/11/14 07:09:25;;;;;;;2.53;1.70;;;;;;;23.78;37.44;99241.66;5109035;28;20039;-56
2022/11/14 07:11:51;;;;;;;3.38;1.67;;;;;;;23.79;37.36;99237.66;5121424;27;20109;-56
2022/11/14 07:14:16;;;;;;;2.22;1.48;;;;;;;23.78;37.40;99248.03;5119578;27;20043;-56
2022/11/14 07:16:41;;;;;;;2.70;1.80;;;;;;;23.78;37.43;99244.44;5118225;28;20075;-56
2022/11/14 07:19:10;;;;;;;2.03;1.38;;;;;;;23.78;37.57;99248.03;5110548;28;20040;-56
2022/11/14 07:21:36;;;;;;;2.72;1.70;;;;;;;23.78;37.55;99250.03;5123594;27;20058;-67
2022/11/14 07:24:01;;;;;;;2.35;1.73;;;;;;;23.78;37.82;99259.22;5124104;27;20039;-67
2022/11/14 07:26:27;;;;;;;2.50;1.80;;;;;;;23.76;37.33;99244.84;5119334;28;20058;-67
2022/11/14 07:28:52;;;;;;;2.55;1.73;;;;;;;23.79;37.46;99260.00;5112599;28;20039;-57
2022/11/14 07:31:18;;;;;;;2.67;1.92;;;;;;;23.80;37.74;99272.81;5119631;28;20210;-56
2022/11/14 07:33:45;;;;;;;4.57;1.80;;;;;;;23.78;37.72;99258.41;5118849;28;20070;-69
2022/11/14 07:36:12;;;;;;;4.65;1.85;;;;;;;23.76;37.88;99258.03;5121597;28;20518;-56
2022/11/14 07:38:37;;;;;;;3.28;1.92;;;;;;;23.79;38.21;99260.00;5120413;28;20046;-55
2022/11/14 07:41:09;;;;;;;7.10;2.10;;;;;;;23.75;38.17;99265.59;5105661;27;20036;-67
2022/11/14 07:43:35;;;;;;;2.47;1.77;;;;;;;23.80;37.91;99261.63;5115735;27;20055;-56
2022/11/14 07:46:03;;;;;;;4.95;2.05;;;;;;;23.80;38.12;99261.63;5119795;27;20048;-57
2022/11/14 07:48:29;;;;;;;3.58;1.95;;;;;;;23.81;38.00;99275.19;5113032;27;20035;-69
2022/11/14 07:51:03;;;;;;;2.75;1.73;;;;;;;23.83;37.88;99274.78;5112437;28;20155;-68
2022/11/14 07:53:29;;;;;;;2.83;1.90;;;;;;;23.79;37.82;99272.00;5109582;28;20047;-55
2022/11/14 07:55:56;;;;;;;3.00;1.75;;;;;;;23.80;38.09;99279.19;5124764;27;20042;-64
2022/11/14 07:58:21;;;;;;;4.03;1.73;;;;;;;23.81;38.47;99268.81;5115498;28;20051;-55
2022/11/14 08:00:47;;;;;;;6.47;2.33;;;;;;;23.85;38.87;99264.00;5113150;27;20051;-60
2022/11/14 08:03:12;;;;;;;3.35;1.80;;;;;;;23.92;39.00;99277.97;5112092;27;20157;-60
2022/11/14 08:05:38;;;;;;;3.67;2.10;;;;;;;23.98;39.03;99270.00;5108192;27;20472;-63
2022/11/14 08:08:04;;;;;;;3.25;1.67;;;;;;;24.03;39.39;99269.59;5107383;27;20058;-58
2022/11/14 08:10:30;;;;;;;3.80;2.00;;;;;;;24.07;39.33;99270.38;5110618;27;20063;-62
2022/11/14 08:13:03;;;;;;;8.35;1.85;;;;;;;24.12;39.29;99275.56;5108132;27;20100;-63
2022/11/14 08:15:29;;;;;;;3.60;1.98;;;;;;;24.15;38.72;99272.00;5114751;28;20126;-61
2022/11/14 08:17:58;;;;;;;4.93;2.00;;;;;;;24.15;38.56;99270.00;5115855;27;20054;-62
2022/11/14 08:20:25;;;;;;;5.57;1.98;;;;;;;24.21;39.00;99275.16;5109070;27;20055;-62
2022/11/14 08:22:52;;;;;;;3.50;1.92;;;;;;;24.23;38.89;99279.16;5117904;27;20404;-61
2022/11/14 08:25:18;;;;;;;3.00;2.00;;;;;;;24.27;39.24;99284.72;5112078;27;20039;-62
2022/11/14 08:27:44;;;;;;;4.70;2.10;;;;;;;24.28;39.12;99275.16;5118071;27;20050;-63
2022/11/14 08:30:11;;;;;;;3.28;1.73;;;;;;;24.27;39.14;99279.94;5124372;27;20152;-60
2022/11/14 08:32:36;;;;;;;3.83;1.98;;;;;;;24.31;39.08;99279.94;5112856;27;20040;-63
2022/11/14 08:35:02;;;;;;;11.15;2.05;;;;;;;24.31;38.97;99274.34;5111120;27;20046;-59
2022/11/14 08:37:27;;;;;;;3.70;2.20;;;;;;;24.33;38.74;99280.38;5119307;27;20051;-62
2022/11/14 08:39:53;;;;;;;3.75;2.17;;;;;;;24.36;38.72;99277.56;5112992;28;20047;-65
2022/11/14 08:42:18;;;;;;;3.08;1.90;;;;;;;24.38;38.95;99279.97;5090274;28;20498;-66
2022/11/14 08:44:44;;;;;;;2.95;1.98;;;;;;;24.39;38.99;99279.56;5118142;27;20036;-62
2022/11/14 08:47:09;;;;;;;3.80;1.90;;;;;;;24.41;39.00;99281.94;5111589;27;20509;-59
2022/11/14 08:49:35;;;;;;;3.38;1.65;;;;;;;24.43;39.13;99279.53;5116674;27;20055;-66
2022/11/14 08:52:00;;;;;;;4.70;1.80;;;;;;;24.43;39.37;99287.91;5113065;27;20652;-58
2022/11/14 08:54:25;;;;;;;2.80;1.65;;;;;;;24.48;39.00;99295.91;5101988;28;20039;-70
2022/11/14 08:56:51;;;;;;;5.20;1.80;;;;;;;24.47;39.02;99283.13;5115735;28;20031;-57
2022/11/14 08:59:16;;;;;;;4.63;1.60;;;;;;;24.51;39.37;99292.31;5111933;28;20526;-66
2022/11/14 09:01:42;;;;;;;4.43;1.70;;;;;;;24.53;39.24;99295.50;5114556;28;20039;-61
2022/11/14 09:04:07;;;;;;;2.67;1.83;;;;;;;24.54;39.04;99293.50;5115073;28;20179;-62
2022/11/14 09:06:33;;;;;;;3.03;2.00;;;;;;;24.55;39.11;99298.69;5113674;28;20075;-54
2022/11/14 09:08:58;;;;;;;3.67;1.92;;;;;;;24.58;39.18;99292.31;5099378;28;20456;-68
2022/11/14 09:11:27;;;;;;;3.22;1.88;;;;;;;24.58;39.20;99303.50;5113922;27;20533;-57
2022/11/14 09:13:53;;;;;;;2.90;1.90;;;;;;;24.57;39.27;99299.06;5115787;27;20051;-58
2022/11/14 09:16:19;;;;;;;2.95;1.80;;;;;;;24.60;39.00;99314.28;5121746;27;20042;-58
2022/11/14 09:18:44;;;;;;;2.78;1.70;;;;;;;24.60;39.10;99303.88;5095643;28;20130;-72
2022/11/14 09:21:10;;;;;;;3.25;2.10;;;;;;;24.64;39.25;99312.25;5119066;27;20088;-58
2022/11/14 09:23:35;;;;;;;3.28;1.85;;;;;;;24.63;39.22;99311.44;5111959;27;20042;-71
2022/11/14 09:26:05;;;;;;;3.28;2.10;;;;;;;24.64;39.03;99309.44;5113929;27;20602;-55
2022/11/14 09:28:31;;;;;;;3.40;1.90;;;;;;;24.67;39.03;99309.44;5110472;27;20074;-56
2022/11/14 09:31:05;;;;;;;2.72;1.60;;;;;;;24.71;39.16;99315.81;5106274;27;20058;-57
2022/11/14 09:33:32;;;;;;;3.50;1.73;;;;;;;24.73;39.01;99317.44;5082050;28;20040;-65
2022/11/14 09:36:03;;;;;;;2.70;1.90;;;;;;;24.79;38.88;99327.00;5096328;28;20031;-63
2022/11/14 09:38:29;;;;;;;2.90;2.10;;;;;;;24.78;38.89;99309.41;5087563;28;20062;-64
2022/11/14 09:41:33;;;;;;;2.83;1.80;;;;;;;24.76;39.11;99320.22;5120340;27;20072;-62
2022/11/14 09:44:11;;;;;;;2.50;1.80;;;;;;;24.76;39.12;99308.22;5113110;27;20046;-58
2022/11/14 09:46:40;;;;;;;2.88;1.85;;;;;;;24.72;39.17;99319.44;5095241;27;20518;-62
2022/11/14 09:49:32;;;;;;;4.38;2.00;;;;;;;24.74;38.63;99313.44;5105301;28;20157;-56
2022/11/14 09:52:07;;;;;;;2.67;1.67;;;;;;;24.75;38.72;99321.41;5092384;28;20066;-59
2022/11/14 09:54:43;;;;;;;2.80;2.00;;;;;;;24.76;38.73;99325.00;5107158;27;20087;-58
2022/11/14 09:57:14;;;;;;;7.45;2.20;;;;;;;24.77;38.50;99318.22;5114104;28;20043;-62
2022/11/14 09:59:40;;;;;;;15.23;6.88;;;;;;;24.53;36.60;99320.66;5113041;28;20032;-62
2022/11/14 10:02:30;;;;;;;16.73;6.57;;;;;;;24.31;37.77;99327.47;5095231;28;20039;-58
2022/11/14 10:05:10;;;;;;;13.73;5.45;;;;;;;24.31;38.10;99322.66;5114219;28;21006;-59
2022/11/14 10:07:51;;;;;;;8.77;4.90;;;;;;;24.37;38.16;99317.50;5107504;28;20461;-58
2022/11/14 10:11:16;;;;;;;8.60;4.75;;;;;;;24.42;38.34;99317.88;5087829;28;20420;-58
2022/11/14 10:14:00;;;;;;;7.20;4.25;;;;;;;24.49;38.51;99321.88;5014390;28;20050;-59
2022/11/14 10:16:30;;;;;;;9.40;4.15;;;;;;;24.52;38.48;99313.50;4992963;28;20069;-59
2022/11/14 10:19:08;;;;;;;6.93;3.53;;;;;;;24.55;38.63;99306.28;5011786;28;20058;-61
2022/11/14 10:21:40;;;;;;;8.02;3.88;;;;;;;24.59;38.60;99307.88;5010205;28;20125;-61
2022/11/14 10:24:29;;;;;;;8.48;3.60;;;;;;;24.65;38.44;99306.28;4996299;28;20057;-60
2022/11/14 10:27:03;;;;;;;4.32;3.08;;;;;;;24.66;38.46;99304.28;5009438;28;20584;-59
2022/11/14 10:29:43;;;;;;;5.53;3.63;;;;;;;24.69;38.63;99304.25;5013594;28;20041;-61
2022/11/14 10:32:23;;;;;;;5.38;3.22;;;;;;;24.72;38.19;99305.47;5014961;28;20556;-61
2022/11/14 10:35:12;;;;;;;6.45;3.63;;;;;;;24.73;38.33;99295.06;5015098;28;20049;-62
2022/11/14 10:37:45;;;;;;;6.60;3.00;;;;;;;24.73;38.27;99295.06;4976540;28;20054;-79
2022/11/14 10:40:21;;;;;;;4.15;2.70;;;;;;;24.76;38.32;99283.84;5010488;28;20527;-58
2022/11/14 10:42:53;;;;;;;6.60;2.85;;;;;;;24.79;38.26;99287.81;5009031;28;20049;-60
2022/11/14 10:45:27;;;;;;;4.50;3.15;;;;;;;24.79;38.39;99280.25;5094518;28;20400;-61
2022/11/14 10:48:01;;;;;;;8.93;3.28;;;;;;;24.81;38.46;99288.25;5110573;27;20043;-58
2022/11/14 10:50:36;;;;;;;7.05;3.95;;;;;;;24.80;38.36;99284.66;5108606;28;20087;-62
2022/11/14 10:53:10;;;;;;;9.30;6.10;;;;;;;24.80;38.36;99281.06;5107899;27;20065;-57
2022/11/14 10:55:35;;;;;;;8.40;5.28;;;;;;;24.81;38.56;99274.25;5115701;27;20104;-64
2022/11/14 10:58:01;;;;;;;7.20;4.28;;;;;;;24.80;38.68;99273.47;5091898;28;20488;-59
2022/11/14 11:00:26;;;;;;;5.72;3.90;;;;;;;24.85;38.67;99281.41;5119029;28;20067;-66
2022/11/14 11:02:55;;;;;;;12.93;3.67;;;;;;;24.85;38.61;99269.41;5119187;27;20154;-64
2022/11/14 11:05:28;;;;;;;6.38;4.00;;;;;;;24.87;38.69;99275.44;5113005;27;20636;-63
2022/11/14 11:13:38;;;;;;;6.55;3.63;;;;;;;24.78;39.22;99259.06;5115894;27;20054;-60
2022/11/14 11:16:04;;;;;;;7.18;3.40;;;;;;;24.77;39.20;99262.25;5111696;27;20040;-60
2022/11/14 11:18:35;;;;;;;9.85;3.60;;;;;;;24.75;38.92;99251.50;5100312;28;20055;-61
2022/11/14 11:21:04;;;;;;;5.32;3.75;;;;;;;24.73;39.06;99262.28;5122005;27;20059;-67
2022/11/14 11:23:30;;;;;;;5.43;3.45;;;;;;;24.74;38.97;99257.50;5111068;28;20177;-67
2022/11/14 11:26:17;;;;;;;4.97;3.08;;;;;;;24.70;39.17;99260.28;5112827;27;20389;-68
2022/11/14 11:28:43;;;;;;;4.93;3.03;;;;;;;24.70;39.24;99258.28;5113534;27;20051;-60
2022/11/14 11:31:10;;;;;;;3.95;2.80;;;;;;;24.70;39.33;99257.50;5116495;27;20044;-68
2022/11/14 11:33:38;;;;;;;4.78;2.92;;;;;;;24.70;39.38;99251.91;5114333;27;20516;-67
2022/11/14 11:36:16;;;;;;;5.20;2.70;;;;;;;24.66;39.47;99251.13;5090263;28;20027;-62
2022/11/14 11:38:43;;;;;;;4.57;2.67;;;;;;;24.65;39.22;99255.94;5111239;27;20047;-62
2022/11/14 11:41:30;;;;;;;5.45;2.47;;;;;;;24.63;39.34;99258.31;5106242;27;20035;-60